Aérodrome :
LOGIN :

S'inscrire | Disclaimer

   EN    FR    IT 

 










Légende :    VFR   VFR Marginal   IFR   IFR Intensif   IFR Très Intensif
Visi : 
Plafond : 
>= 8 km
>= 3000ft
5 à 8 km
1000 à 3000 ft
1500m à 5 km
500 à 1000 ft
800 à 1500m
200 à 500 ft
< 800m
< 200 ft
Symboles :   Orages  Brouillard  Fortes neiges  Fortes précipitations  Vent > 20 kt
SIGMETs :   Divers  Orages  Givrage  Turbulence  Onde Orograph.  Cendres Volcan.






- Altitude de l'aérodrome : 291 ft
- Code IATA : ORY


LFPO - Paris-Orly

DERNIER METAR :
  • 202130Z AUTO 31010KT 9999 ///CB 26/16 Q1006 TEMPO 16010G30KT 2500 TSRA BKN014 SCT060CB

METARs EXPIRÉS :
  • 202100Z AUTO 31009KT 9999 ///CB 26/17 Q1006 TEMPO 16010G30KT 2500 TSRA BKN014 SCT060CB
  • 202030Z AUTO 30009KT CAVOK 27/17 Q1006 TEMPO 16010G30KT 2500 TSRA BKN014 SCT060CB
  • 202000Z AUTO 30009KT CAVOK 28/17 Q1005 TEMPO 16010G30KT 2500 TSRA BKN014 SCT060CB
  • 201930Z AUTO 29006KT 230V310 CAVOK 28/16 Q1006 TEMPO 16010G30KT 2500 TSRA BKN014 SCT060CB
  • 201900Z AUTO 30005KT 220V340 CAVOK 29/16 Q1005 TEMPO 16010G30KT 2500 TSRA SCT065CB
  • 201830Z AUTO 28005KT 220V330 CAVOK 30/15 Q1005 TEMPO 16010G30KT 2500 TSRA SCT065CB
  • 201800Z AUTO 25006KT 220V290 CAVOK 30/15 Q1005 TEMPO 2500 TSRA SCT070CB
  • 201730Z AUTO 23008KT CAVOK 30/15 Q1006 TEMPO 2500 TSRA SCT070CB
  • 201700Z 25009KT 220V300 CAVOK 31/15 Q1006 NOSIG
  • 201630Z 26009KT 230V300 CAVOK 31/15 Q1006 NOSIG

TAF TAF LFPO
Valide du 20 à 18h jusqu'au 22 à 00h UTC


201700Z 2018/2124 23008KT CAVOK
PROB40
TEMPO 2018/2020 -SHRA SCT065CB
TEMPO 2020/2024 16010G30KT 2500 TSRA BKN014 SCT060CB
PROB30
TEMPO 2021/2022 GS
PROB40
TEMPO 2100/2102 -SHRA SCT030TCU
PROB30
TEMPO 2103/2107 BKN008
BECMG 2112/2115 30010KT
ATIS : +33 1 49 75 65 80



MET'MAP, la Météo Aéronautique d'un coup d'oeil ! - Copyright ORBIFLY Décembre 2007 - Disclaimer

ORBIFLY MET'MAP TEAM :

Programmation & Développement : Alexandra Zaïnal
Sur une idée originale de : Baudouin d'Aumeries
Soutien technique & logistique : Manuel Goepfert
Assistance : Marc-Olivier Méhu




SOURCES & CREDITS :

   NOAA